Time;durP1;ratioP1;P1;durP2;ratioP2;P2;SDS_P1;SDS_P2;PMS_P1;PMS_P2;Temp;Humidity;BMP_temperature;BMP_pressure;BME280_temperature;BME280_humidity;BME280_pressure;Samples;Min_cycle;Max_cycle;Signal;HPM_P1;HPM_P2
2022/07/22 00:00:17;;;;;;;;;;;;;;;;;;1042744;28;20347;-74
2022/07/22 00:00:47;;;;;;;;;;;;;;;;;;1042741;28;19909;-74
2022/07/22 00:01:19;;;;;;;;;;;;;;;;;;1043084;28;19913;-74
2022/07/22 00:01:49;;;;;;;;;;;;;;;;;;1042948;28;19935;-75
2022/07/22 00:02:20;;;;;;;;;;;;;;;;;;1042827;28;19963;-74
2022/07/22 00:02:50;;;;;;;;;;;;;;;;;;1041232;28;19909;-74
2022/07/22 00:03:20;;;;;;;;;;;;;;;;;;1042336;28;19909;-74
2022/07/22 00:03:50;;;;;;;;;;;;;;;;;;1042540;28;19909;-75
2022/07/22 00:04:21;;;;;;;;;;;;;;;;;;1042629;28;19909;-74
2022/07/22 00:04:51;;;;;;;;;;;;;;;;;;1043180;28;19931;-74
2022/07/22 00:05:21;;;;;;;;;;;;;;;;;;1041823;28;19959;-74
2022/07/22 00:05:52;;;;;;;;;;;;;;;;;;1042771;28;19913;-74
2022/07/22 00:06:22;;;;;;;;;;;;;;;;;;1042685;28;20463;-75
2022/07/22 00:06:52;;;;;;;;;;;;;;;;;;1042530;28;19970;-74
2022/07/22 00:07:22;;;;;;;;;;;;;;;;;;1042285;28;19920;-74
2022/07/22 00:07:53;;;;;;;;;;;;;;;;;;1038297;28;20400;-74
2022/07/22 00:08:23;;;;;;;;;;;;;;;;;;1036345;28;19916;-74
2022/07/22 00:08:53;;;;;;;;;;;;;;;;;;1040600;28;19952;-75
2022/07/22 00:09:23;;;;;;;;;;;;;;;;;;1040540;28;19909;-74
2022/07/22 00:09:54;;;;;;;;;;;;;;;;;;1044462;28;19920;-74
2022/07/22 00:10:24;;;;;;;;;;;;;;;;;;1042615;28;19912;-74
2022/07/22 00:10:54;;;;;;;;;;;;;;;;;;1042616;28;19915;-74
2022/07/22 00:11:24;;;;;;;;;;;;;;;;;;1042196;28;19921;-74
2022/07/22 00:11:55;;;;;;;;;;;;;;;;;;1042273;28;19909;-74
2022/07/22 00:12:25;;;;;;;;;;;;;;;;;;1043051;28;19916;-74
2022/07/22 00:12:55;;;;;;;;;;;;;;;;;;1042761;28;20330;-74
2022/07/22 00:13:25;;;;;;;;;;;;;;;;;;1042481;28;19959;-75
2022/07/22 00:13:56;;;;;;;;;;;;;;;;;;1042345;28;20360;-75
2022/07/22 00:14:26;;;;;;;;;;;;;;;;;;1042344;28;19909;-74
2022/07/22 00:14:56;;;;;;;;;;;;;;;;;;1042893;28;19908;-74
2022/07/22 00:15:26;;;;;;;;;;;;;;;;;;1043028;28;20498;-74
2022/07/22 00:15:57;;;;;;;;;;;;;;;;;;1042954;28;19958;-74
2022/07/22 00:16:27;;;;;;;;;;;;;;;;;;1042668;28;19909;-74
2022/07/22 00:16:57;;;;;;;;;;;;;;;;;;1042103;28;20364;-75
2022/07/22 00:17:27;;;;;;;;;;;;;;;;;;1042431;28;19908;-75
2022/07/22 00:17:58;;;;;;;;;;;;;;;;;;1042667;28;19909;-74
2022/07/22 00:18:29;;;;;;;;;;;;;;;;;;1042316;28;19909;-75
2022/07/22 00:18:59;;;;;;;;;;;;;;;;;;1041438;28;20364;-74
2022/07/22 00:19:30;;;;;;;;;;;;;;;;;;1042330;28;19996;-74
2022/07/22 00:20:00;;;;;;;;;;;;;;;;;;1042552;28;20359;-74
2022/07/22 00:20:30;;;;;;;;;;;;;;;;;;1042861;28;19913;-75
2022/07/22 00:21:00;;;;;;;;;;;;;;;;;;1043051;28;19913;-75
2022/07/22 00:21:31;;;;;;;;;;;;;;;;;;1041518;28;20299;-74
2022/07/22 00:22:01;;;;;;;;;;;;;;;;;;1042635;28;19912;-74
2022/07/22 00:22:31;;;;;;;;;;;;;;;;;;1042758;28;21168;-74
2022/07/22 00:23:01;;;;;;;;;;;;;;;;;;1042601;28;20080;-74
2022/07/22 00:23:32;;;;;;;;;;;;;;;;;;1042254;28;19927;-74
2022/07/22 00:24:02;;;;;;;;;;;;;;;;;;1042138;28;19909;-75
2022/07/22 00:24:32;;;;;;;;;;;;;;;;;;1042618;28;19915;-74
2022/07/22 00:25:02;;;;;;;;;;;;;;;;;;1041531;28;20361;-74
2022/07/22 00:25:33;;;;;;;;;;;;;;;;;;1039092;28;19913;-74
2022/07/22 00:26:03;;;;;;;;;;;;;;;;;;1042361;28;20365;-75
2022/07/22 00:26:33;;;;;;;;;;;;;;;;;;1040458;28;20153;-74
2022/07/22 00:27:03;;;;;;;;;;;;;;;;;;1040532;28;19951;-74
2022/07/22 00:27:34;;;;;;;;;;;;;;;;;;1037961;28;20361;-74
2022/07/22 00:28:04;;;;;;;;;;;;;;;;;;1038199;28;19916;-74
2022/07/22 00:28:34;;;;;;;;;;;;;;;;;;1042344;28;19916;-74
2022/07/22 00:29:04;;;;;;;;;;;;;;;;;;1042193;28;20378;-74
2022/07/22 00:29:35;;;;;;;;;;;;;;;;;;1042448;28;19909;-74
2022/07/22 00:30:05;;;;;;;;;;;;;;;;;;1042821;28;19909;-74
2022/07/22 00:30:35;;;;;;;;;;;;;;;;;;1043023;28;19935;-74
2022/07/22 00:31:05;;;;;;;;;;;;;;;;;;1041711;28;19909;-74
2022/07/22 00:31:36;;;;;;;;;;;;;;;;;;1042920;28;19927;-75
2022/07/22 00:32:06;;;;;;;;;;;;;;;;;;1042547;28;21124;-74
2022/07/22 00:32:36;;;;;;;;;;;;;;;;;;1042746;28;19915;-74
2022/07/22 00:33:06;;;;;;;;;;;;;;;;;;1042193;28;19916;-74
2022/07/22 00:33:37;;;;;;;;;;;;;;;;;;1042183;28;20340;-74
2022/07/22 00:34:07;;;;;;;;;;;;;;;;;;1042523;28;20340;-74
2022/07/22 00:34:37;;;;;;;;;;;;;;;;;;1042620;28;19909;-75
2022/07/22 00:35:07;;;;;;;;;;;;;;;;;;1041641;28;20067;-75
2022/07/22 00:35:38;;;;;;;;;;;;;;;;;;1042590;28;20047;-75
2022/07/22 00:36:08;;;;;;;;;;;;;;;;;;1042489;28;20034;-74
2022/07/22 00:36:38;;;;;;;;;;;;;;;;;;1041934;28;20381;-74
2022/07/22 00:37:09;;;;;;;;;;;;;;;;;;1043055;28;19916;-75
2022/07/22 00:37:39;;;;;;;;;;;;;;;;;;1042853;28;19915;-75
2022/07/22 00:38:10;;;;;;;;;;;;;;;;;;1042384;28;19909;-75
2022/07/22 00:38:40;;;;;;;;;;;;;;;;;;1042729;28;20300;-74
2022/07/22 00:39:10;;;;;;;;;;;;;;;;;;1042673;28;19909;-75
2022/07/22 00:39:40;;;;;;;;;;;;;;;;;;1042764;28;19909;-75
2022/07/22 00:40:11;;;;;;;;;;;;;;;;;;1042525;28;20368;-75
2022/07/22 00:40:41;;;;;;;;;;;;;;;;;;1042045;28;19979;-75
2022/07/22 00:41:11;;;;;;;;;;;;;;;;;;1042595;28;19959;-74
2022/07/22 00:41:42;;;;;;;;;;;;;;;;;;1038422;28;19919;-74
2022/07/22 00:42:12;;;;;;;;;;;;;;;;;;1038583;28;20011;-74
2022/07/22 00:42:42;;;;;;;;;;;;;;;;;;1042275;28;19916;-74
2022/07/22 00:43:12;;;;;;;;;;;;;;;;;;1042180;28;20384;-75
2022/07/22 00:43:42;;;;;;;;;;;;;;;;;;1041695;28;19935;-75
2022/07/22 00:44:13;;;;;;;;;;;;;;;;;;1042051;28;20000;-74
2022/07/22 00:44:43;;;;;;;;;;;;;;;;;;1042490;28;19951;-74
2022/07/22 00:45:13;;;;;;;;;;;;;;;;;;1042777;28;20368;-74
2022/07/22 00:45:44;;;;;;;;;;;;;;;;;;1042265;28;19915;-74
2022/07/22 00:46:14;;;;;;;;;;;;;;;;;;1042563;28;20345;-74
2022/07/22 00:46:44;;;;;;;;;;;;;;;;;;1042718;28;19932;-74
2022/07/22 00:47:14;;;;;;;;;;;;;;;;;;1042951;28;20376;-75
2022/07/22 00:47:45;;;;;;;;;;;;;;;;;;1042783;28;19915;-74
2022/07/22 00:48:15;;;;;;;;;;;;;;;;;;1042623;28;20269;-74
2022/07/22 00:48:45;;;;;;;;;;;;;;;;;;1043383;28;19943;-75
2022/07/22 00:49:15;;;;;;;;;;;;;;;;;;1042871;28;19913;-75
2022/07/22 00:49:46;;;;;;;;;;;;;;;;;;1042286;28;19909;-74
2022/07/22 00:50:19;;;;;;;;;;;;;;;;;;1042333;28;19940;-75
2022/07/22 00:50:49;;;;;;;;;;;;;;;;;;1042074;28;19936;-74
2022/07/22 00:51:19;;;;;;;;;;;;;;;;;;1042605;28;20054;-75
2022/07/22 00:51:50;;;;;;;;;;;;;;;;;;1037622;28;19948;-75
2022/07/22 00:52:20;;;;;;;;;;;;;;;;;;1038192;28;19953;-75
2022/07/22 00:52:50;;;;;;;;;;;;;;;;;;1042397;28;19956;-75
2022/07/22 00:53:20;;;;;;;;;;;;;;;;;;1042415;28;19994;-75
2022/07/22 00:53:51;;;;;;;;;;;;;;;;;;1041416;28;19908;-74
2022/07/22 00:54:21;;;;;;;;;;;;;;;;;;1042408;28;19915;-74
2022/07/22 00:54:51;;;;;;;;;;;;;;;;;;1042778;28;19916;-74
2022/07/22 00:55:21;;;;;;;;;;;;;;;;;;1042799;28;20019;-74
2022/07/22 00:55:52;;;;;;;;;;;;;;;;;;1042857;28;19955;-74
2022/07/22 00:56:22;;;;;;;;;;;;;;;;;;1042506;28;19928;-75
2022/07/22 00:56:52;;;;;;;;;;;;;;;;;;1042492;28;19970;-74
2022/07/22 00:57:22;;;;;;;;;;;;;;;;;;1039533;28;19913;-74
2022/07/22 00:57:53;;;;;;;;;;;;;;;;;;1038081;28;19913;-74
2022/07/22 00:58:23;;;;;;;;;;;;;;;;;;1039817;28;19909;-75
2022/07/22 00:58:53;;;;;;;;;;;;;;;;;;1042117;28;19995;-74
2022/07/22 00:59:23;;;;;;;;;;;;;;;;;;1042194;28;19909;-74
2022/07/22 00:59:54;;;;;;;;;;;;;;;;;;1042571;28;20079;-74
2022/07/22 01:00:24;;;;;;;;;;;;;;;;;;1042521;28;20474;-74
2022/07/22 01:00:54;;;;;;;;;;;;;;;;;;1042802;28;19912;-74
2022/07/22 01:01:25;;;;;;;;;;;;;;;;;;1042249;28;20014;-75
2022/07/22 01:01:55;;;;;;;;;;;;;;;;;;1041937;28;19909;-74
2022/07/22 01:02:25;;;;;;;;;;;;;;;;;;1041110;28;19908;-74
2022/07/22 01:02:55;;;;;;;;;;;;;;;;;;1042032;28;19932;-74
2022/07/22 01:03:26;;;;;;;;;;;;;;;;;;1042320;28;19945;-74
2022/07/22 01:03:56;;;;;;;;;;;;;;;;;;1042826;28;20327;-74
2022/07/22 01:04:26;;;;;;;;;;;;;;;;;;1042408;28;19908;-74
2022/07/22 01:04:56;;;;;;;;;;;;;;;;;;1042752;28;19918;-74
2022/07/22 01:05:27;;;;;;;;;;;;;;;;;;1042782;28;20422;-74
2022/07/22 01:05:57;;;;;;;;;;;;;;;;;;1042466;28;20031;-74
2022/07/22 01:06:27;;;;;;;;;;;;;;;;;;1039857;28;20351;-74
2022/07/22 01:06:57;;;;;;;;;;;;;;;;;;1042049;28;19999;-74
2022/07/22 01:07:28;;;;;;;;;;;;;;;;;;1042359;28;19947;-74
2022/07/22 01:07:58;;;;;;;;;;;;;;;;;;1042052;28;20261;-74
2022/07/22 01:08:28;;;;;;;;;;;;;;;;;;1042603;28;19943;-75
2022/07/22 01:08:58;;;;;;;;;;;;;;;;;;1042247;28;19916;-75
2022/07/22 01:09:29;;;;;;;;;;;;;;;;;;1042092;28;20429;-75
2022/07/22 01:09:59;;;;;;;;;;;;;;;;;;1042101;28;19955;-75
2022/07/22 01:10:29;;;;;;;;;;;;;;;;;;1042645;28;19952;-74
2022/07/22 01:10:59;;;;;;;;;;;;;;;;;;1042766;28;20399;-74
2022/07/22 01:11:30;;;;;;;;;;;;;;;;;;1042225;28;19908;-74
2022/07/22 01:12:00;;;;;;;;;;;;;;;;;;1042007;28;19958;-74
2022/07/22 01:12:30;;;;;;;;;;;;;;;;;;1042049;28;20002;-74
2022/07/22 01:13:00;;;;;;;;;;;;;;;;;;1042449;28;19916;-74
2022/07/22 01:13:31;;;;;;;;;;;;;;;;;;1042192;28;20018;-74
2022/07/22 01:14:01;;;;;;;;;;;;;;;;;;1042541;28;19951;-74
2022/07/22 01:14:31;;;;;;;;;;;;;;;;;;1042376;28;20387;-75
2022/07/22 01:15:01;;;;;;;;;;;;;;;;;;1042086;28;19912;-75
2022/07/22 01:15:33;;;;;;;;;;;;;;;;;;1042338;28;20000;-74
2022/07/22 01:16:04;;;;;;;;;;;;;;;;;;1042040;28;19909;-74
2022/07/22 01:16:34;;;;;;;;;;;;;;;;;;1042576;28;19913;-75
2022/07/22 01:17:04;;;;;;;;;;;;;;;;;;1041164;28;19923;-75
2022/07/22 01:17:34;;;;;;;;;;;;;;;;;;1038025;28;19984;-74
2022/07/22 01:18:05;;;;;;;;;;;;;;;;;;1041521;28;19912;-74
2022/07/22 01:18:35;;;;;;;;;;;;;;;;;;1042571;28;20356;-74
2022/07/22 01:19:05;;;;;;;;;;;;;;;;;;1040987;28;19931;-75
2022/07/22 01:19:35;;;;;;;;;;;;;;;;;;1042291;28;19912;-74
2022/07/22 01:20:06;;;;;;;;;;;;;;;;;;1042558;28;19913;-74
2022/07/22 01:20:36;;;;;;;;;;;;;;;;;;1042288;28;20295;-74
2022/07/22 01:21:06;;;;;;;;;;;;;;;;;;1042263;28;19909;-74
2022/07/22 01:21:36;;;;;;;;;;;;;;;;;;1042638;28;19916;-74
2022/07/22 01:22:07;;;;;;;;;;;;;;;;;;1042874;28;20394;-74
2022/07/22 01:22:37;;;;;;;;;;;;;;;;;;1042831;28;19916;-74
2022/07/22 01:23:07;;;;;;;;;;;;;;;;;;1041223;28;19908;-75
2022/07/22 01:23:37;;;;;;;;;;;;;;;;;;1041795;28;19956;-75
2022/07/22 01:24:08;;;;;;;;;;;;;;;;;;1042203;28;20384;-74
2022/07/22 01:24:38;;;;;;;;;;;;;;;;;;1041903;28;20023;-74
2022/07/22 01:25:08;;;;;;;;;;;;;;;;;;1042022;28;19982;-74
2022/07/22 01:25:38;;;;;;;;;;;;;;;;;;1042674;28;20028;-74
2022/07/22 01:26:09;;;;;;;;;;;;;;;;;;1042718;28;19913;-75
2022/07/22 01:26:39;;;;;;;;;;;;;;;;;;1042852;28;20514;-74
2022/07/22 01:27:09;;;;;;;;;;;;;;;;;;1041599;28;20343;-75
2022/07/22 01:27:39;;;;;;;;;;;;;;;;;;1042759;28;19943;-75
2022/07/22 01:28:10;;;;;;;;;;;;;;;;;;1042697;28;19908;-75
2022/07/22 01:28:40;;;;;;;;;;;;;;;;;;1041786;28;20461;-75
2022/07/22 01:29:10;;;;;;;;;;;;;;;;;;1041985;28;19909;-75
2022/07/22 01:29:41;;;;;;;;;;;;;;;;;;1042169;28;20331;-75
2022/07/22 01:30:11;;;;;;;;;;;;;;;;;;1037990;28;20253;-75
2022/07/22 01:30:41;;;;;;;;;;;;;;;;;;1040909;28;19908;-75
2022/07/22 01:31:11;;;;;;;;;;;;;;;;;;1041141;28;19909;-74
2022/07/22 01:31:42;;;;;;;;;;;;;;;;;;1041604;28;20390;-74
2022/07/22 01:32:12;;;;;;;;;;;;;;;;;;1041372;28;20004;-75
2022/07/22 01:32:42;;;;;;;;;;;;;;;;;;1042245;28;19913;-75
2022/07/22 01:33:12;;;;;;;;;;;;;;;;;;1042131;28;20007;-75
2022/07/22 01:33:43;;;;;;;;;;;;;;;;;;1040950;28;20020;-75
2022/07/22 01:34:13;;;;;;;;;;;;;;;;;;1041053;28;20272;-75
2022/07/22 01:34:43;;;;;;;;;;;;;;;;;;1042238;28;20369;-75
2022/07/22 01:35:13;;;;;;;;;;;;;;;;;;1041935;28;19913;-75
2022/07/22 01:35:44;;;;;;;;;;;;;;;;;;1040793;28;19925;-75
2022/07/22 01:36:14;;;;;;;;;;;;;;;;;;1040458;28;19909;-75
2022/07/22 01:36:44;;;;;;;;;;;;;;;;;;1041594;28;19913;-75
2022/07/22 01:37:14;;;;;;;;;;;;;;;;;;1041707;28;19909;-75
2022/07/22 01:37:45;;;;;;;;;;;;;;;;;;1041642;28;20455;-75
2022/07/22 01:38:15;;;;;;;;;;;;;;;;;;1042319;28;19963;-75
2022/07/22 01:38:45;;;;;;;;;;;;;;;;;;1042745;28;19909;-75
2022/07/22 01:39:15;;;;;;;;;;;;;;;;;;1041184;28;19909;-75
2022/07/22 01:39:46;;;;;;;;;;;;;;;;;;1040106;28;20364;-75
2022/07/22 01:40:16;;;;;;;;;;;;;;;;;;1040399;28;19917;-75
2022/07/22 01:40:46;;;;;;;;;;;;;;;;;;1040403;28;19916;-75
2022/07/22 01:41:16;;;;;;;;;;;;;;;;;;1040489;28;19909;-75
2022/07/22 01:41:47;;;;;;;;;;;;;;;;;;1038267;28;20031;-75
2022/07/22 01:42:17;;;;;;;;;;;;;;;;;;1036101;28;20436;-75
2022/07/22 01:42:47;;;;;;;;;;;;;;;;;;1039150;28;20399;-75
2022/07/22 01:43:20;;;;;;;;;;;;;;;;;;1035563;28;19916;-75
2022/07/22 01:43:50;;;;;;;;;;;;;;;;;;1037329;28;19909;-75
2022/07/22 01:44:20;;;;;;;;;;;;;;;;;;1040511;28;20483;-75
2022/07/22 01:44:51;;;;;;;;;;;;;;;;;;1041651;28;19909;-75
2022/07/22 01:45:21;;;;;;;;;;;;;;;;;;1041722;28;19909;-75
2022/07/22 01:45:51;;;;;;;;;;;;;;;;;;1040750;28;20323;-75
2022/07/22 01:46:23;;;;;;;;;;;;;;;;;;1040005;28;19912;-75
2022/07/22 01:46:53;;;;;;;;;;;;;;;;;;1038336;28;19972;-75
2022/07/22 01:47:24;;;;;;;;;;;;;;;;;;1040564;28;19935;-75
2022/07/22 01:47:54;;;;;;;;;;;;;;;;;;1041896;28;19916;-75
2022/07/22 01:48:24;;;;;;;;;;;;;;;;;;1042957;28;20261;-75
2022/07/22 01:48:55;;;;;;;;;;;;;;;;;;1041691;28;19915;-75
2022/07/22 01:49:25;;;;;;;;;;;;;;;;;;1042099;28;19908;-75
2022/07/22 01:49:56;;;;;;;;;;;;;;;;;;1041316;28;19908;-75
2022/07/22 01:50:26;;;;;;;;;;;;;;;;;;1041775;28;19990;-75
2022/07/22 01:50:56;;;;;;;;;;;;;;;;;;1041368;28;20008;-75
2022/07/22 01:51:26;;;;;;;;;;;;;;;;;;1040080;28;20396;-75
2022/07/22 01:51:57;;;;;;;;;;;;;;;;;;1039628;28;19909;-75
2022/07/22 01:52:27;;;;;;;;;;;;;;;;;;1042401;28;19909;-75
2022/07/22 01:52:57;;;;;;;;;;;;;;;;;;1038472;28;20395;-75
2022/07/22 01:53:27;;;;;;;;;;;;;;;;;;1041885;28;20414;-75
2022/07/22 01:53:58;;;;;;;;;;;;;;;;;;1042259;28;20426;-75
2022/07/22 01:54:28;;;;;;;;;;;;;;;;;;1039968;28;19909;-74
2022/07/22 01:54:58;;;;;;;;;;;;;;;;;;1042181;28;19912;-75
2022/07/22 01:55:29;;;;;;;;;;;;;;;;;;1041099;28;19920;-75
2022/07/22 01:55:59;;;;;;;;;;;;;;;;;;1040118;28;19915;-75
2022/07/22 01:56:29;;;;;;;;;;;;;;;;;;1041113;28;19924;-75
2022/07/22 01:56:59;;;;;;;;;;;;;;;;;;1041362;28;19908;-75
2022/07/22 01:57:30;;;;;;;;;;;;;;;;;;1041701;28;20050;-75
2022/07/22 01:58:00;;;;;;;;;;;;;;;;;;1040058;28;19916;-75
2022/07/22 01:58:30;;;;;;;;;;;;;;;;;;1040318;28;19976;-75
2022/07/22 01:59:00;;;;;;;;;;;;;;;;;;1033840;28;19960;-75
2022/07/22 01:59:31;;;;;;;;;;;;;;;;;;1037107;28;19909;-75
2022/07/22 02:00:01;;;;;;;;;;;;;;;;;;1035376;28;19909;-75
2022/07/22 02:00:31;;;;;;;;;;;;;;;;;;1041863;28;20422;-75
2022/07/22 02:01:01;;;;;;;;;;;;;;;;;;1034974;28;19996;-75
2022/07/22 02:01:32;;;;;;;;;;;;;;;;;;1037345;28;19924;-75
2022/07/22 02:02:02;;;;;;;;;;;;;;;;;;1036836;28;19943;-75
2022/07/22 02:02:32;;;;;;;;;;;;;;;;;;1039089;28;19916;-75
2022/07/22 02:03:02;;;;;;;;;;;;;;;;;;1038005;28;19993;-75
2022/07/22 02:03:33;;;;;;;;;;;;;;;;;;1039721;28;19913;-75
2022/07/22 02:04:03;;;;;;;;;;;;;;;;;;1038995;28;19917;-75
2022/07/22 02:04:33;;;;;;;;;;;;;;;;;;1039954;28;20418;-75
2022/07/22 02:05:04;;;;;;;;;;;;;;;;;;1040497;28;20078;-75
2022/07/22 02:05:34;;;;;;;;;;;;;;;;;;1040302;28;19944;-75
2022/07/22 02:06:04;;;;;;;;;;;;;;;;;;1040436;28;20358;-75
2022/07/22 02:06:34;;;;;;;;;;;;;;;;;;1038278;28;19955;-75
2022/07/22 02:07:07;;;;;;;;;;;;;;;;;;1036887;28;20424;-75
2022/07/22 02:07:38;;;;;;;;;;;;;;;;;;1037729;28;19992;-75
2022/07/22 02:08:08;;;;;;;;;;;;;;;;;;1037479;28;20475;-75
2022/07/22 02:08:38;;;;;;;;;;;;;;;;;;1041906;28;19913;-75
2022/07/22 02:09:08;;;;;;;;;;;;;;;;;;1042125;28;19909;-75
2022/07/22 02:09:39;;;;;;;;;;;;;;;;;;1042217;28;19909;-75
2022/07/22 02:10:09;;;;;;;;;;;;;;;;;;1040411;28;19909;-75
2022/07/22 02:10:39;;;;;;;;;;;;;;;;;;1042494;28;19932;-75
2022/07/22 02:11:09;;;;;;;;;;;;;;;;;;1041593;28;20411;-75
2022/07/22 02:11:40;;;;;;;;;;;;;;;;;;1040891;28;19909;-75
2022/07/22 02:12:10;;;;;;;;;;;;;;;;;;1041665;28;19909;-75
2022/07/22 02:12:40;;;;;;;;;;;;;;;;;;1040978;28;20382;-75
2022/07/22 02:13:10;;;;;;;;;;;;;;;;;;1041878;28;19995;-75
2022/07/22 02:13:41;;;;;;;;;;;;;;;;;;1041677;28;19908;-75
2022/07/22 02:14:11;;;;;;;;;;;;;;;;;;1037987;28;20730;-75
2022/07/22 02:14:41;;;;;;;;;;;;;;;;;;1040285;28;19913;-75
2022/07/22 02:15:11;;;;;;;;;;;;;;;;;;1042374;28;19955;-75
2022/07/22 02:15:42;;;;;;;;;;;;;;;;;;1041052;28;19955;-75
2022/07/22 02:16:12;;;;;;;;;;;;;;;;;;1041999;28;19912;-75
2022/07/22 02:16:42;;;;;;;;;;;;;;;;;;1040879;28;19962;-75
2022/07/22 02:17:12;;;;;;;;;;;;;;;;;;1039314;28;20554;-75
2022/07/22 02:17:43;;;;;;;;;;;;;;;;;;1042300;28;20364;-75
2022/07/22 02:18:13;;;;;;;;;;;;;;;;;;1042251;28;19913;-75
2022/07/22 02:18:43;;;;;;;;;;;;;;;;;;1041916;28;20050;-75
2022/07/22 02:19:13;;;;;;;;;;;;;;;;;;1039381;28;20270;-75
2022/07/22 02:19:44;;;;;;;;;;;;;;;;;;1040131;28;19913;-75
2022/07/22 02:20:14;;;;;;;;;;;;;;;;;;1041688;28;19916;-75
2022/07/22 02:20:44;;;;;;;;;;;;;;;;;;1041849;28;19912;-75
2022/07/22 02:21:15;;;;;;;;;;;;;;;;;;1041675;28;20384;-74
2022/07/22 02:21:45;;;;;;;;;;;;;;;;;;1038592;28;19967;-75
2022/07/22 02:22:15;;;;;;;;;;;;;;;;;;1041936;28;20360;-75
2022/07/22 02:22:45;;;;;;;;;;;;;;;;;;1039976;28;19987;-75
2022/07/22 02:23:16;;;;;;;;;;;;;;;;;;1041276;28;20410;-75
2022/07/22 02:23:46;;;;;;;;;;;;;;;;;;1041633;28;19992;-75
2022/07/22 02:24:16;;;;;;;;;;;;;;;;;;1041570;28;19909;-75
2022/07/22 02:24:47;;;;;;;;;;;;;;;;;;1042084;28;19908;-75
2022/07/22 02:25:17;;;;;;;;;;;;;;;;;;1038495;28;20565;-75
2022/07/22 02:25:47;;;;;;;;;;;;;;;;;;1036148;28;19961;-75
2022/07/22 02:26:17;;;;;;;;;;;;;;;;;;1035601;28;19917;-75
2022/07/22 02:26:48;;;;;;;;;;;;;;;;;;1032834;28;19919;-75
2022/07/22 02:27:18;;;;;;;;;;;;;;;;;;1038888;28;20012;-75
2022/07/22 02:27:48;;;;;;;;;;;;;;;;;;1040104;28;20028;-75
2022/07/22 02:28:19;;;;;;;;;;;;;;;;;;1041510;28;20487;-75
2022/07/22 02:28:49;;;;;;;;;;;;;;;;;;1040600;28;19948;-75
2022/07/22 02:29:19;;;;;;;;;;;;;;;;;;1039387;28;19908;-75
2022/07/22 02:29:49;;;;;;;;;;;;;;;;;;1041189;28;19955;-75
2022/07/22 02:30:20;;;;;;;;;;;;;;;;;;1042194;28;19908;-75
2022/07/22 02:30:50;;;;;;;;;;;;;;;;;;1039679;28;19909;-75
2022/07/22 02:31:20;;;;;;;;;;;;;;;;;;1041260;28;20019;-75
2022/07/22 02:31:50;;;;;;;;;;;;;;;;;;1041409;28;19909;-75
2022/07/22 02:32:21;;;;;;;;;;;;;;;;;;1041181;28;19913;-75
2022/07/22 02:32:51;;;;;;;;;;;;;;;;;;1041780;28;19962;-75
2022/07/22 02:33:21;;;;;;;;;;;;;;;;;;1041511;28;19913;-75
2022/07/22 02:33:51;;;;;;;;;;;;;;;;;;1039926;28;19909;-75
2022/07/22 02:34:22;;;;;;;;;;;;;;;;;;1041559;28;20003;-75
2022/07/22 02:34:52;;;;;;;;;;;;;;;;;;1041598;28;19947;-75
2022/07/22 02:35:22;;;;;;;;;;;;;;;;;;1040825;28;19927;-75
2022/07/22 02:35:52;;;;;;;;;;;;;;;;;;1040422;28;19913;-75
2022/07/22 02:36:23;;;;;;;;;;;;;;;;;;1039712;28;20456;-75
2022/07/22 02:36:53;;;;;;;;;;;;;;;;;;1039323;28;19913;-75
2022/07/22 02:37:23;;;;;;;;;;;;;;;;;;1037274;28;20364;-75
2022/07/22 02:37:53;;;;;;;;;;;;;;;;;;1037770;28;20044;-75
2022/07/22 02:38:24;;;;;;;;;;;;;;;;;;1041501;28;19908;-75
2022/07/22 02:38:54;;;;;;;;;;;;;;;;;;1041037;28;19954;-75
2022/07/22 02:39:24;;;;;;;;;;;;;;;;;;1041936;28;20287;-75
2022/07/22 02:39:55;;;;;;;;;;;;;;;;;;1041402;28;19916;-75
2022/07/22 02:40:25;;;;;;;;;;;;;;;;;;1042607;28;20397;-75
2022/07/22 02:40:55;;;;;;;;;;;;;;;;;;1040525;28;20437;-75
2022/07/22 02:41:25;;;;;;;;;;;;;;;;;;1041596;28;20004;-75
2022/07/22 02:41:56;;;;;;;;;;;;;;;;;;1039926;28;20007;-75
2022/07/22 02:42:26;;;;;;;;;;;;;;;;;;1041624;28;19916;-75
2022/07/22 02:42:56;;;;;;;;;;;;;;;;;;1041590;28;20410;-75
2022/07/22 02:43:26;;;;;;;;;;;;;;;;;;1041633;28;19958;-75
2022/07/22 02:43:57;;;;;;;;;;;;;;;;;;1040353;28;19913;-75
2022/07/22 02:44:27;;;;;;;;;;;;;;;;;;1041914;28;19913;-75
2022/07/22 02:44:57;;;;;;;;;;;;;;;;;;1039054;28;19940;-75
2022/07/22 02:45:27;;;;;;;;;;;;;;;;;;1041170;28;20335;-75
2022/07/22 02:45:58;;;;;;;;;;;;;;;;;;1036650;28;19915;-75
2022/07/22 02:46:28;;;;;;;;;;;;;;;;;;1039726;28;19909;-75
2022/07/22 02:46:58;;;;;;;;;;;;;;;;;;1040338;28;19999;-75
2022/07/22 02:47:28;;;;;;;;;;;;;;;;;;1039460;28;19909;-75
2022/07/22 02:47:59;;;;;;;;;;;;;;;;;;1040371;28;19909;-75
2022/07/22 02:48:29;;;;;;;;;;;;;;;;;;1036935;28;19913;-75
2022/07/22 02:48:59;;;;;;;;;;;;;;;;;;1034370;28;20436;-75
2022/07/22 02:49:30;;;;;;;;;;;;;;;;;;1034680;28;19913;-75
2022/07/22 02:50:00;;;;;;;;;;;;;;;;;;1039387;28;19970;-75
2022/07/22 02:50:32;;;;;;;;;;;;;;;;;;1042688;28;19944;-75
2022/07/22 02:51:03;;;;;;;;;;;;;;;;;;1040334;28;19959;-75
2022/07/22 02:51:33;;;;;;;;;;;;;;;;;;1039354;28;20011;-75
2022/07/22 02:52:03;;;;;;;;;;;;;;;;;;1040371;28;19909;-75
2022/07/22 02:52:34;;;;;;;;;;;;;;;;;;1039381;28;20360;-75
2022/07/22 02:53:04;;;;;;;;;;;;;;;;;;1037273;28;19913;-75
2022/07/22 02:53:34;;;;;;;;;;;;;;;;;;1040963;28;19995;-75
2022/07/22 02:54:05;;;;;;;;;;;;;;;;;;1040402;28;19909;-75
2022/07/22 02:54:35;;;;;;;;;;;;;;;;;;1041222;28;19916;-75
2022/07/22 02:55:05;;;;;;;;;;;;;;;;;;1038864;28;20429;-75
2022/07/22 02:55:36;;;;;;;;;;;;;;;;;;1041504;28;19960;-75
2022/07/22 02:56:06;;;;;;;;;;;;;;;;;;1038737;28;20003;-74
2022/07/22 02:56:36;;;;;;;;;;;;;;;;;;1040655;28;19920;-75
2022/07/22 02:57:06;;;;;;;;;;;;;;;;;;1039763;28;20007;-75
2022/07/22 02:57:38;;;;;;;;;;;;;;;;;;1040211;28;19909;-75
2022/07/22 02:58:08;;;;;;;;;;;;;;;;;;1040118;28;20499;-75
2022/07/22 02:58:38;;;;;;;;;;;;;;;;;;1039759;28;19910;-75
2022/07/22 02:59:09;;;;;;;;;;;;;;;;;;1039706;28;20335;-75
2022/07/22 02:59:39;;;;;;;;;;;;;;;;;;1041689;28;19916;-75
2022/07/22 03:00:10;;;;;;;;;;;;;;;;;;1042310;28;19915;-75
2022/07/22 03:00:40;;;;;;;;;;;;;;;;;;1040648;28;19916;-75
2022/07/22 03:01:10;;;;;;;;;;;;;;;;;;1038638;28;20023;-75
2022/07/22 03:01:41;;;;;;;;;;;;;;;;;;1038493;28;20444;-75
2022/07/22 03:02:11;;;;;;;;;;;;;;;;;;1037000;28;19913;-75
2022/07/22 03:02:41;;;;;;;;;;;;;;;;;;1034365;28;19921;-75
2022/07/22 03:03:11;;;;;;;;;;;;;;;;;;1037813;28;20459;-75
2022/07/22 03:03:41;;;;;;;;;;;;;;;;;;1038899;28;19917;-75
2022/07/22 03:04:12;;;;;;;;;;;;;;;;;;1041201;28;19912;-75
2022/07/22 03:04:42;;;;;;;;;;;;;;;;;;1040326;28;20265;-75
2022/07/22 03:05:12;;;;;;;;;;;;;;;;;;1040144;28;19999;-75
2022/07/22 03:05:42;;;;;;;;;;;;;;;;;;1040595;28;19912;-75
2022/07/22 03:06:13;;;;;;;;;;;;;;;;;;1039452;28;20019;-75
2022/07/22 03:06:43;;;;;;;;;;;;;;;;;;1039474;28;19913;-75
2022/07/22 03:07:13;;;;;;;;;;;;;;;;;;1039964;28;20386;-75
2022/07/22 03:07:44;;;;;;;;;;;;;;;;;;1041386;28;19912;-75
2022/07/22 03:08:14;;;;;;;;;;;;;;;;;;1041012;28;20256;-75
2022/07/22 03:08:44;;;;;;;;;;;;;;;;;;1040809;28;19909;-75
2022/07/22 03:09:14;;;;;;;;;;;;;;;;;;1040029;28;20015;-75
2022/07/22 03:09:45;;;;;;;;;;;;;;;;;;1040610;28;19916;-75
2022/07/22 03:10:15;;;;;;;;;;;;;;;;;;1041166;28;19912;-75
2022/07/22 03:10:45;;;;;;;;;;;;;;;;;;1040976;28;20044;-75
2022/07/22 03:11:16;;;;;;;;;;;;;;;;;;1040972;28;20547;-75
2022/07/22 03:11:46;;;;;;;;;;;;;;;;;;1040145;28;20015;-75
2022/07/22 03:12:16;;;;;;;;;;;;;;;;;;1035438;28;19975;-75
2022/07/22 03:12:46;;;;;;;;;;;;;;;;;;1035728;28;19955;-75
2022/07/22 03:13:17;;;;;;;;;;;;;;;;;;1037798;28;19909;-75
2022/07/22 03:13:47;;;;;;;;;;;;;;;;;;1039774;28;20631;-75
2022/07/22 03:14:18;;;;;;;;;;;;;;;;;;1042748;28;19913;-75
2022/07/22 03:14:48;;;;;;;;;;;;;;;;;;1040399;28;19909;-75
2022/07/22 03:15:18;;;;;;;;;;;;;;;;;;1043275;28;19916;-75
2022/07/22 03:15:49;;;;;;;;;;;;;;;;;;1040291;28;19917;-75
2022/07/22 03:16:19;;;;;;;;;;;;;;;;;;1041927;28;19968;-75
2022/07/22 03:16:49;;;;;;;;;;;;;;;;;;1041197;28;19909;-75
2022/07/22 03:17:19;;;;;;;;;;;;;;;;;;1041511;28;19909;-75
2022/07/22 03:17:50;;;;;;;;;;;;;;;;;;1041686;28;19916;-75
2022/07/22 03:18:20;;;;;;;;;;;;;;;;;;1042089;28;19908;-75
2022/07/22 03:18:50;;;;;;;;;;;;;;;;;;1041274;28;20376;-75
2022/07/22 03:19:20;;;;;;;;;;;;;;;;;;1041345;28;20068;-75
2022/07/22 03:19:51;;;;;;;;;;;;;;;;;;1042535;28;19919;-75
2022/07/22 03:20:21;;;;;;;;;;;;;;;;;;1040543;28;19916;-75
2022/07/22 03:20:51;;;;;;;;;;;;;;;;;;1040552;28;20324;-75
2022/07/22 03:21:21;;;;;;;;;;;;;;;;;;1041777;28;20471;-75
2022/07/22 03:21:52;;;;;;;;;;;;;;;;;;1041647;28;19948;-75
2022/07/22 03:22:22;;;;;;;;;;;;;;;;;;1040190;28;19917;-75
2022/07/22 03:22:52;;;;;;;;;;;;;;;;;;1040372;28;19913;-75
2022/07/22 03:23:22;;;;;;;;;;;;;;;;;;1040762;28;19951;-75
2022/07/22 03:23:53;;;;;;;;;;;;;;;;;;1041333;28;20338;-75
2022/07/22 03:24:23;;;;;;;;;;;;;;;;;;1039846;28;19959;-75
2022/07/22 03:24:54;;;;;;;;;;;;;;;;;;1041672;28;19909;-75
2022/07/22 03:25:24;;;;;;;;;;;;;;;;;;1040674;28;19913;-75
2022/07/22 03:25:54;;;;;;;;;;;;;;;;;;1041462;28;19960;-75
2022/07/22 03:26:24;;;;;;;;;;;;;;;;;;1041122;28;19912;-75
2022/07/22 03:26:55;;;;;;;;;;;;;;;;;;1040167;28;20267;-75